Terminal Aerodrome Forecast
Issued by NWS

Home | Current Version | Previous Version | Text Only | Print | Product List | Glossary On
Versions: 1 2 3 4 5 6 7 8 9 10 11 12 13 14 15 16 17 18 19 20 21 22 23 24 25 26 27 28 29 30 31 32 33 34 35 36 37 38 39 40
000
FTAK31 PANC 240623 AAA
TAFADQ
TAF AMD
PADQ 240623Z 2406/2506 15006KT P6SM VCSH OVC035
      TEMPO 2406/2410 6SM -SHRA BKN025
     FM241000 12010KT 6SM -SHRA BKN025
     FM250000 10015KT 5SM -RA OVC012
     FM250500 08015G22KT 3SM -RA BKN005 OVC012=

USA.gov is the U.S. government's official web portal to all federal, state and local government web resources and services.